METAR AND TAF INFORMATION
METAR FOR RJSC
ADDS - METARS form results

(0210 UTC 23 January 2019)
Data provider http://aviationweather.gov/metar/data/
 
METAR text: RJSC 230200Z VRB01KT 9999 FEW015 SCT030 BKN050 01/M02 Q1011
Conditions at: RJSC (YAMAGATA(CIV/JGS, JP) observed 0200 UTC 23 January 2019
Temperature: 1.0°C (34°F)
Dewpoint: -2.0°C (28°F) [RH = 80%]
Pressure (altimeter): 29.85 inches Hg (1011.0 mb)
Winds: variable direction winds at 1 MPH (1 knots; 0.5 m/s)
Visibility: 6 or more miles (10+ km)
Ceiling: 5000 feet AGL
Clouds: few clouds at 1500 feet AGL
scattered clouds at 3000 feet AGL
broken clouds at 5000 feet AGL
Weather: no significant weather observed at this time

 AIRPORT MAP

 RUNWAY INFORMATION
Runway 01 Runway length 6560 ft Runway width 150 ft
Runway elevation 347 ft Runway displaced threshold 0 ft Runway heading 7
Runway 19 Runway length 6560 ft Runway width 150 ft
Runway elevation 353 ft Runway displaced threshold 0 ft Runway heading 187

 AIRPORT FREQUENCIES
Type ACC Name TOKYO CON Frequency 118.9 MHZ
Type RDO Name RDO Frequency 122.7 MHZ

 AIRPORT NEAR NAVIGATION AIDS
Type VOR-DME Name Yamagata Frequency 113000 KHZ
Type VOR Name Zao-Yamada Frequency 110800 KHZ



Powered by Virtual Airlines Manager [v2.6.2]